Olcott, NY

5:43 PM EST on February 27, 2015 (GMT -0500)
Somerset | Change Station
CLOSE
Current Station
Personal Weather Station
Location: Appleton, NY
Elevation: 318 ft
Nearby Weather Stations

Elev 318 ft 43.33 °N, 78.63 °W | Updated 19 seconds ago

Partly Cloudy
Partly Cloudy
11.9 °F
Feels Like 0 °F
N
9.0
Wind Variable Wind from SW
Gusts 14.0 mph

Today
High -- | Low -- °F
--% Chance of Precip.
Yesterday
High -- | Low -- °F
Precip. -- in
6:54 AM 6:01 PM
Waxing Gibbous, 72% visible
Pressure 30.62 in
Visibility 10.0 miles
Clouds Scattered Clouds 3300 ft
Scattered Clouds 20000 ft
Windchill 0 °F
Dew Point 4 °F
Humidity 63%
Rainfall 0.00 in
Snow Depth Not available.
UV 0 out of 12
Pollen .40 out of 12
Air Quality Not available.
Flu Activity Not available.
METAR KIAG 272153Z 24011G21KT 10SM SCT033 SCT200 M12/M17 A3054 RMK AO2 SLP369 T11171172

More Conditions Fewer Conditions

Pressure 30.62 in
Visibility 10.0 miles
Clouds Scattered Clouds 3300 ft
Scattered Clouds 20000 ft
Windchill 0 °F
Dew Point 4 °F
Humidity 63%
Rainfall 0.00 in
Snow Depth Not available.
UV 0 out of 12
Pollen .40 out of 12
Air Quality Not available.
Flu Activity Not available.
METAR KIAG 272153Z 24011G21KT 10SM SCT033 SCT200 M12/M17 A3054 RMK AO2 SLP369 T11171172

More Conditions Fewer Conditions

10-Day Weather Forecast

Almanac

Astronomy

Feb. 27, 2015 Rise Set
Actual Time
Civil Twilight
Nautical Twilight
Astronomical Twilight
Moon
Length of Visible Light
Length of Day
Tomorrow will be .
, % of the Moon is Illuminated

Today's Extremes

State Highs State Lows

Community

WunderPhotos

Upload Photos

1,800,862 photos uploaded!

WunderBlogs® & News

Nearby

Air Quality

  Air Quality AQ Index Pollutant
Not available.

Snow Depth

Station Depth Elevation

Earthquake Activity

City Distance Mag. Time & Date
Minimum magnitude displayed is 2.5.

Coastal Water Temperatures

Place Temperature

Nearby Weather Stations